Huvudsida
METAR-TAF:

METAR-TAF

Flygplatser :

Dala Airport

Borlänge, Sverige

latitud: 60-26N, longitud: 015-31E, höjd: 145 m

Aktuellt väderrapport

Denna rapport gjordes för 39 minuter sedan, klockan 18:50 UTC
Vind 12 kt från syd/sydväst
Temperatur 13°C
Fuktighet 100%
Tryck 1006 hPa
Sikt: 6000 m
lätt duggregn

METAR: ESSD 211850Z AUTO 20012KT 6000 -DZ BKN009/// OVC010/// 13/13 Q1006

Tid: 21:29 (19:29 UTC)


TAF: saknas

Aktuella väderrapporter och prognoser från 4000 flygplatser (METAR- och TAF-rapporter).

De tillgängliga stationerna syns som gula och röda prickar på kartan.

För musen över prickarna för att se namnen på stationerna.

Klicka sedan för att få väderrapporter och prognoser.

För att ändra kartan: Klicka på de gröna knapparna med ett svart kors på för att zooma in; den gröna knappen med ett streck på för att zooma ut; eller på de gröna pilarna för angränsande kartor.


METAR-TAF: